Bookmark and Share
Track history (hours):
 

F/V Ville D'arzew 2

Last reported at 2013-Sep-27 16:04 UTC. Time now 2014-Apr-18 13:19 UTC.
Position N 43°21' E 005°18'.
Warning: this ship's position is months out of date.

Length 32 m.

Type: Fishing. MMSI: 227919000.

NotesDate/timePositionNaut miles runAvg speedWind from/ knotsBaromVisibWave heightAir tempDewpointWater temp
2013-Sep-27 16:04N 43°21' E 005°18'7 9.7
2013-Sep-27 15:23N 43°19' E 005°10'8 9.3
2013-Sep-27 14:33N 43°18' E 004°59'5 4.7
2013-Sep-27 13:33N 43°19' E 004°53'2 1.6
2013-Sep-27 12:33N 43°17' E 004°52'4 3.8
2013-Sep-27 11:33N 43°14' E 004°50'2 1.9
2013-Sep-27 10:33N 43°12' E 004°48'1 0.5
2013-Sep-27 09:33N 43°12' E 004°49'1 0.9
2013-Sep-27 08:32N 43°11' E 004°48'1 1.0
2013-Sep-27 07:33N 43°11' E 004°49'3 2.7
2013-Sep-27 06:34N 43°11' E 004°45'1 1.4
2013-Sep-27 05:33N 43°10' E 004°47'1 0.8
2013-Sep-27 04:33N 43°10' E 004°47'1 1.3
2013-Sep-27 03:33N 43°09' E 004°47'1 1.2
2013-Sep-27 02:33N 43°09' E 004°48'1010.2
2013-Sep-27 01:33N 43°13' E 005°01'1110.0
2013-Sep-27 00:29N 43°18' E 005°14'5 4.6
2013-Sep-26 23:20N 43°21' E 005°19'0 0.0
2013-Sep-26 20:33N 43°21' E 005°19'  

Dump ship's entire track history

sailing weather and tide predictions

F/V Ville D'arzew 2 — FKTL — position and weather